sensor_id;sensor_type;location;lat;lon;timestamp;pressure;altitude;pressure_sealevel;temperature;humidity
76547;BME280;65390;53.014;8.886;2023-02-07T00:01:24;104130.66;;;0.13;100.00
76547;BME280;65390;53.014;8.886;2023-02-07T00:03:50;104139.78;;;0.23;100.00
76547;BME280;65390;53.014;8.886;2023-02-07T00:06:18;104128.34;;;0.22;100.00
76547;BME280;65390;53.014;8.886;2023-02-07T00:08:44;104123.31;;;0.02;100.00
76547;BME280;65390;53.014;8.886;2023-02-07T00:11:15;104146.19;;;0.03;100.00
76547;BME280;65390;53.014;8.886;2023-02-07T00:13:42;104149.00;;;0.09;100.00
76547;BME280;65390;53.014;8.886;2023-02-07T00:16:08;104143.34;;;-0.04;100.00
76547;BME280;65390;53.014;8.886;2023-02-07T00:18:34;104145.69;;;-0.13;100.00
76547;BME280;65390;53.014;8.886;2023-02-07T00:21:08;104162.44;;;-0.11;100.00
76547;BME280;65390;53.014;8.886;2023-02-07T00:23:34;104169.56;;;-0.08;100.00
76547;BME280;65390;53.014;8.886;2023-02-07T00:26:01;104146.44;;;-0.17;100.00
76547;BME280;65390;53.014;8.886;2023-02-07T00:28:26;104162.53;;;-0.08;100.00
76547;BME280;65390;53.014;8.886;2023-02-07T00:31:16;104152.41;;;0.05;100.00
76547;BME280;65390;53.014;8.886;2023-02-07T00:33:43;104181.63;;;0.12;100.00
76547;BME280;65390;53.014;8.886;2023-02-07T00:36:15;104150.25;;;-0.07;100.00
76547;BME280;65390;53.014;8.886;2023-02-07T00:38:41;104156.59;;;-0.01;100.00
76547;BME280;65390;53.014;8.886;2023-02-07T00:41:07;104140.50;;;-0.10;100.00
76547;BME280;65390;53.014;8.886;2023-02-07T00:43:34;104155.84;;;0.02;100.00
76547;BME280;65390;53.014;8.886;2023-02-07T00:46:02;104147.38;;;-0.15;100.00
76547;BME280;65390;53.014;8.886;2023-02-07T00:48:29;104175.06;;;-0.01;100.00
76547;BME280;65390;53.014;8.886;2023-02-07T00:50:55;104161.97;;;0.01;100.00
76547;BME280;65390;53.014;8.886;2023-02-07T00:53:21;104124.78;;;-0.07;100.00
76547;BME280;65390;53.014;8.886;2023-02-07T00:55:47;104106.16;;;-0.13;100.00
76547;BME280;65390;53.014;8.886;2023-02-07T00:58:12;104128.41;;;-0.03;100.00
76547;BME280;65390;53.014;8.886;2023-02-07T01:00:38;104121.63;;;-0.23;100.00
76547;BME280;65390;53.014;8.886;2023-02-07T01:03:03;104137.56;;;-0.19;100.00
76547;BME280;65390;53.014;8.886;2023-02-07T01:05:29;104116.06;;;-0.33;100.00
76547;BME280;65390;53.014;8.886;2023-02-07T01:07:54;104112.53;;;-0.33;100.00
76547;BME280;65390;53.014;8.886;2023-02-07T01:10:20;104126.44;;;-0.37;100.00
76547;BME280;65390;53.014;8.886;2023-02-07T01:12:45;104119.09;;;-0.47;100.00
76547;BME280;65390;53.014;8.886;2023-02-07T01:15:11;104114.66;;;-0.48;100.00
76547;BME280;65390;53.014;8.886;2023-02-07T01:17:36;104142.16;;;-0.40;100.00
76547;BME280;65390;53.014;8.886;2023-02-07T01:20:02;104128.84;;;-0.45;100.00
76547;BME280;65390;53.014;8.886;2023-02-07T01:22:27;104139.59;;;-0.37;100.00
76547;BME280;65390;53.014;8.886;2023-02-07T01:24:53;104141.53;;;-0.33;100.00
76547;BME280;65390;53.014;8.886;2023-02-07T01:27:22;104143.22;;;-0.35;100.00
76547;BME280;65390;53.014;8.886;2023-02-07T01:29:48;104152.75;;;-0.39;100.00
76547;BME280;65390;53.014;8.886;2023-02-07T01:32:13;104119.81;;;-0.53;100.00
76547;BME280;65390;53.014;8.886;2023-02-07T01:34:39;104134.75;;;-0.52;100.00
76547;BME280;65390;53.014;8.886;2023-02-07T01:37:04;104163.56;;;-0.31;100.00
76547;BME280;65390;53.014;8.886;2023-02-07T01:39:30;104154.53;;;-0.38;100.00
76547;BME280;65390;53.014;8.886;2023-02-07T01:41:55;104142.06;;;-0.43;100.00
76547;BME280;65390;53.014;8.886;2023-02-07T01:46:46;104115.56;;;-0.73;100.00
76547;BME280;65390;53.014;8.886;2023-02-07T01:49:13;104130.53;;;-0.72;100.00
76547;BME280;65390;53.014;8.886;2023-02-07T01:51:45;104101.59;;;-0.98;100.00
76547;BME280;65390;53.014;8.886;2023-02-07T01:54:13;104115.69;;;-0.96;100.00
76547;BME280;65390;53.014;8.886;2023-02-07T01:56:44;104119.16;;;-0.97;100.00
76547;BME280;65390;53.014;8.886;2023-02-07T01:59:11;104121.19;;;-0.89;100.00
76547;BME280;65390;53.014;8.886;2023-02-07T02:01:37;104147.47;;;-0.66;100.00
76547;BME280;65390;53.014;8.886;2023-02-07T02:04:02;104141.53;;;-0.58;100.00
76547;BME280;65390;53.014;8.886;2023-02-07T02:06:30;104103.81;;;-0.84;100.00
76547;BME280;65390;53.014;8.886;2023-02-07T02:08:58;104150.03;;;-0.67;100.00
76547;BME280;65390;53.014;8.886;2023-02-07T02:17:23;104134.28;;;-0.66;100.00
76547;BME280;65390;53.014;8.886;2023-02-07T02:20:00;104151.13;;;-0.61;100.00
76547;BME280;65390;53.014;8.886;2023-02-07T02:22:54;104151.84;;;-0.66;100.00
76547;BME280;65390;53.014;8.886;2023-02-07T02:28:30;104156.56;;;-0.81;100.00
76547;BME280;65390;53.014;8.886;2023-02-07T02:39:10;104141.13;;;-0.96;100.00
76547;BME280;65390;53.014;8.886;2023-02-07T02:41:41;104141.66;;;-1.06;100.00
76547;BME280;65390;53.014;8.886;2023-02-07T02:44:21;104108.19;;;-1.34;100.00
76547;BME280;65390;53.014;8.886;2023-02-07T02:46:50;104110.75;;;-1.36;100.00
76547;BME280;65390;53.014;8.886;2023-02-07T02:49:17;104128.69;;;-1.26;100.00
76547;BME280;65390;53.014;8.886;2023-02-07T02:51:43;104103.34;;;-1.46;100.00
76547;BME280;65390;53.014;8.886;2023-02-07T03:11:13;104102.94;;;-2.03;100.00
76547;BME280;65390;53.014;8.886;2023-02-07T03:16:36;104069.63;;;-2.26;100.00
76547;BME280;65390;53.014;8.886;2023-02-07T03:24:32;104069.03;;;-2.19;100.00
76547;BME280;65390;53.014;8.886;2023-02-07T03:27:01;104076.84;;;-2.21;100.00
76547;BME280;65390;53.014;8.886;2023-02-07T03:29:29;104070.13;;;-2.14;100.00
76547;BME280;65390;53.014;8.886;2023-02-07T03:31:59;104050.53;;;-2.22;100.00
76547;BME280;65390;53.014;8.886;2023-02-07T03:34:34;104091.53;;;-2.03;100.00
76547;BME280;65390;53.014;8.886;2023-02-07T03:37:07;104062.47;;;-2.08;100.00
76547;BME280;65390;53.014;8.886;2023-02-07T03:39:34;104066.47;;;-2.18;100.00
76547;BME280;65390;53.014;8.886;2023-02-07T03:42:29;104056.56;;;-2.25;100.00
76547;BME280;65390;53.014;8.886;2023-02-07T03:44:57;104090.44;;;-2.10;100.00
76547;BME280;65390;53.014;8.886;2023-02-07T03:47:25;104069.16;;;-2.16;100.00
76547;BME280;65390;53.014;8.886;2023-02-07T03:49:51;104065.50;;;-2.20;100.00
76547;BME280;65390;53.014;8.886;2023-02-07T03:52:17;104074.84;;;-2.05;100.00
76547;BME280;65390;53.014;8.886;2023-02-07T03:54:43;104085.44;;;-2.02;100.00
76547;BME280;65390;53.014;8.886;2023-02-07T03:57:08;104039.25;;;-2.20;100.00
76547;BME280;65390;53.014;8.886;2023-02-07T03:59:34;104068.06;;;-1.99;100.00
76547;BME280;65390;53.014;8.886;2023-02-07T04:01:59;104100.50;;;-1.76;100.00
76547;BME280;65390;53.014;8.886;2023-02-07T04:04:26;104069.53;;;-1.83;100.00
76547;BME280;65390;53.014;8.886;2023-02-07T04:06:51;104074.59;;;-1.65;100.00
76547;BME280;65390;53.014;8.886;2023-02-07T04:09:17;104062.19;;;-1.69;100.00
76547;BME280;65390;53.014;8.886;2023-02-07T04:11:42;104089.19;;;-1.49;100.00
76547;BME280;65390;53.014;8.886;2023-02-07T04:14:07;104049.09;;;-1.92;100.00
76547;BME280;65390;53.014;8.886;2023-02-07T04:16:33;104049.66;;;-1.76;100.00
76547;BME280;65390;53.014;8.886;2023-02-07T04:18:58;104065.59;;;-1.72;100.00
76547;BME280;65390;53.014;8.886;2023-02-07T04:21:24;104099.66;;;-1.51;100.00
76547;BME280;65390;53.014;8.886;2023-02-07T04:23:49;104050.94;;;-1.65;100.00
76547;BME280;65390;53.014;8.886;2023-02-07T04:26:15;104097.56;;;-1.37;100.00
76547;BME280;65390;53.014;8.886;2023-02-07T04:28:40;104065.44;;;-1.53;100.00
76547;BME280;65390;53.014;8.886;2023-02-07T04:31:06;104053.00;;;-1.57;100.00
76547;BME280;65390;53.014;8.886;2023-02-07T04:33:31;104066.38;;;-1.50;100.00
76547;BME280;65390;53.014;8.886;2023-02-07T04:35:59;104070.94;;;-1.45;100.00
76547;BME280;65390;53.014;8.886;2023-02-07T04:38:25;104048.66;;;-1.56;100.00
76547;BME280;65390;53.014;8.886;2023-02-07T04:40:51;104049.25;;;-1.63;100.00
76547;BME280;65390;53.014;8.886;2023-02-07T04:43:17;104057.06;;;-1.65;100.00
76547;BME280;65390;53.014;8.886;2023-02-07T04:45:44;104064.31;;;-1.59;100.00
76547;BME280;65390;53.014;8.886;2023-02-07T04:48:10;104067.72;;;-1.62;100.00
76547;BME280;65390;53.014;8.886;2023-02-07T04:50:35;104050.56;;;-1.76;100.00
76547;BME280;65390;53.014;8.886;2023-02-07T04:53:01;104059.38;;;-1.74;100.00
76547;BME280;65390;53.014;8.886;2023-02-07T04:55:26;104072.59;;;-1.72;100.00
76547;BME280;65390;53.014;8.886;2023-02-07T04:57:51;104071.63;;;-1.74;100.00
76547;BME280;65390;53.014;8.886;2023-02-07T05:00:17;104077.94;;;-1.69;100.00
76547;BME280;65390;53.014;8.886;2023-02-07T05:02:43;104078.69;;;-1.73;100.00
76547;BME280;65390;53.014;8.886;2023-02-07T05:05:08;104060.53;;;-1.90;100.00
76547;BME280;65390;53.014;8.886;2023-02-07T05:07:34;104070.59;;;-1.79;100.00
76547;BME280;65390;53.014;8.886;2023-02-07T05:09:59;104054.72;;;-1.81;100.00
76547;BME280;65390;53.014;8.886;2023-02-07T05:12:25;104057.97;;;-1.88;100.00
76547;BME280;65390;53.014;8.886;2023-02-07T05:14:50;104047.25;;;-1.94;100.00
76547;BME280;65390;53.014;8.886;2023-02-07T05:17:15;104080.25;;;-1.78;100.00
76547;BME280;65390;53.014;8.886;2023-02-07T05:19:42;104067.59;;;-1.89;100.00
76547;BME280;65390;53.014;8.886;2023-02-07T05:22:07;104072.69;;;-1.93;100.00
76547;BME280;65390;53.014;8.886;2023-02-07T05:24:33;104072.19;;;-2.05;100.00
76547;BME280;65390;53.014;8.886;2023-02-07T05:26:58;104052.69;;;-2.12;100.00
76547;BME280;65390;53.014;8.886;2023-02-07T05:29:24;104075.19;;;-1.96;100.00
76547;BME280;65390;53.014;8.886;2023-02-07T05:31:49;104067.06;;;-2.02;100.00
76547;BME280;65390;53.014;8.886;2023-02-07T05:34:33;104072.56;;;-1.96;100.00
76547;BME280;65390;53.014;8.886;2023-02-07T05:36:58;104087.84;;;-1.86;100.00
76547;BME280;65390;53.014;8.886;2023-02-07T05:39:24;104077.69;;;-1.99;100.00
76547;BME280;65390;53.014;8.886;2023-02-07T05:41:49;104087.91;;;-2.07;100.00
76547;BME280;65390;53.014;8.886;2023-02-07T05:44:15;104080.22;;;-2.25;100.00
76547;BME280;65390;53.014;8.886;2023-02-07T05:46:40;104086.25;;;-2.27;100.00
76547;BME280;65390;53.014;8.886;2023-02-07T05:49:06;104078.69;;;-2.18;100.00
76547;BME280;65390;53.014;8.886;2023-02-07T05:51:31;104100.31;;;-2.03;100.00
76547;BME280;65390;53.014;8.886;2023-02-07T05:53:56;104082.22;;;-2.18;100.00
76547;BME280;65390;53.014;8.886;2023-02-07T05:56:22;104074.72;;;-2.31;100.00
76547;BME280;65390;53.014;8.886;2023-02-07T05:58:47;104092.97;;;-2.34;100.00
76547;BME280;65390;53.014;8.886;2023-02-07T06:01:12;104102.34;;;-2.18;100.00
76547;BME280;65390;53.014;8.886;2023-02-07T06:03:38;104082.06;;;-2.22;100.00
76547;BME280;65390;53.014;8.886;2023-02-07T06:06:03;104079.53;;;-2.19;100.00
76547;BME280;65390;53.014;8.886;2023-02-07T06:08:29;104085.91;;;-2.14;100.00
76547;BME280;65390;53.014;8.886;2023-02-07T06:10:54;104101.66;;;-2.14;100.00
76547;BME280;65390;53.014;8.886;2023-02-07T06:13:19;104106.66;;;-2.20;100.00
76547;BME280;65390;53.014;8.886;2023-02-07T06:15:46;104097.25;;;-2.15;100.00
76547;BME280;65390;53.014;8.886;2023-02-07T06:18:12;104091.22;;;-2.13;100.00
76547;BME280;65390;53.014;8.886;2023-02-07T06:20:37;104111.84;;;-2.22;100.00
76547;BME280;65390;53.014;8.886;2023-02-07T06:23:02;104093.28;;;-2.26;100.00
76547;BME280;65390;53.014;8.886;2023-02-07T06:25:28;104108.75;;;-2.11;100.00
76547;BME280;65390;53.014;8.886;2023-02-07T06:27:53;104105.88;;;-2.18;100.00
76547;BME280;65390;53.014;8.886;2023-02-07T06:30:19;104105.81;;;-2.19;100.00
76547;BME280;65390;53.014;8.886;2023-02-07T06:32:44;104108.66;;;-2.15;100.00
76547;BME280;65390;53.014;8.886;2023-02-07T06:35:09;104102.00;;;-2.27;100.00
76547;BME280;65390;53.014;8.886;2023-02-07T06:37:35;104144.09;;;-2.03;100.00
76547;BME280;65390;53.014;8.886;2023-02-07T06:40:00;104123.25;;;-2.21;100.00
76547;BME280;65390;53.014;8.886;2023-02-07T06:42:26;104107.97;;;-2.31;100.00
76547;BME280;65390;53.014;8.886;2023-02-07T06:44:51;104122.19;;;-2.26;100.00
76547;BME280;65390;53.014;8.886;2023-02-07T06:47:16;104128.16;;;-2.30;100.00
76547;BME280;65390;53.014;8.886;2023-02-07T06:49:45;104136.16;;;-2.27;100.00
76547;BME280;65390;53.014;8.886;2023-02-07T06:52:10;104132.91;;;-2.20;100.00
76547;BME280;65390;53.014;8.886;2023-02-07T06:54:35;104130.13;;;-2.25;100.00
76547;BME280;65390;53.014;8.886;2023-02-07T06:57:01;104142.97;;;-2.32;100.00
76547;BME280;65390;53.014;8.886;2023-02-07T06:59:26;104148.59;;;-2.44;100.00
76547;BME280;65390;53.014;8.886;2023-02-07T07:01:52;104142.19;;;-2.51;100.00
76547;BME280;65390;53.014;8.886;2023-02-07T07:04:17;104150.44;;;-2.41;100.00
76547;BME280;65390;53.014;8.886;2023-02-07T07:06:43;104157.06;;;-2.51;100.00
76547;BME280;65390;53.014;8.886;2023-02-07T07:09:08;104165.63;;;-2.55;100.00
76547;BME280;65390;53.014;8.886;2023-02-07T07:11:35;104153.00;;;-2.64;100.00
76547;BME280;65390;53.014;8.886;2023-02-07T07:14:03;104128.03;;;-2.75;100.00
76547;BME280;65390;53.014;8.886;2023-02-07T07:16:28;104156.00;;;-2.55;100.00
76547;BME280;65390;53.014;8.886;2023-02-07T07:18:54;104139.81;;;-2.65;100.00
76547;BME280;65390;53.014;8.886;2023-02-07T07:21:19;104139.00;;;-2.64;100.00
76547;BME280;65390;53.014;8.886;2023-02-07T07:23:45;104144.44;;;-2.60;100.00
76547;BME280;65390;53.014;8.886;2023-02-07T07:26:10;104141.75;;;-2.61;100.00
76547;BME280;65390;53.014;8.886;2023-02-07T07:28:35;104152.50;;;-2.55;100.00
76547;BME280;65390;53.014;8.886;2023-02-07T07:31:02;104159.28;;;-2.60;100.00
76547;BME280;65390;53.014;8.886;2023-02-07T07:33:28;104156.91;;;-2.54;100.00
76547;BME280;65390;53.014;8.886;2023-02-07T07:35:56;104147.44;;;-2.51;100.00
76547;BME280;65390;53.014;8.886;2023-02-07T07:38:22;104150.56;;;-2.38;100.00
76547;BME280;65390;53.014;8.886;2023-02-07T07:40:47;104144.94;;;-2.27;100.00
76547;BME280;65390;53.014;8.886;2023-02-07T07:43:13;104154.38;;;-2.09;100.00
76547;BME280;65390;53.014;8.886;2023-02-07T07:45:38;104163.59;;;-2.19;100.00
76547;BME280;65390;53.014;8.886;2023-02-07T07:48:04;104136.16;;;-2.27;100.00
76547;BME280;65390;53.014;8.886;2023-02-07T07:50:29;104140.41;;;-2.08;100.00
76547;BME280;65390;53.014;8.886;2023-02-07T07:52:55;104142.84;;;-2.13;100.00
76547;BME280;65390;53.014;8.886;2023-02-07T07:55:20;104163.22;;;-2.07;100.00
76547;BME280;65390;53.014;8.886;2023-02-07T07:57:45;104172.91;;;-1.84;100.00
76547;BME280;65390;53.014;8.886;2023-02-07T08:00:11;104163.16;;;-1.87;100.00
76547;BME280;65390;53.014;8.886;2023-02-07T08:02:37;104200.91;;;-1.62;100.00
76547;BME280;65390;53.014;8.886;2023-02-07T08:05:02;104163.06;;;-1.90;100.00
76547;BME280;65390;53.014;8.886;2023-02-07T08:07:28;104177.16;;;-1.88;100.00
76547;BME280;65390;53.014;8.886;2023-02-07T08:09:53;104209.00;;;-1.58;100.00
76547;BME280;65390;53.014;8.886;2023-02-07T08:12:19;104179.38;;;-1.76;100.00
76547;BME280;65390;53.014;8.886;2023-02-07T08:14:44;104188.09;;;-1.77;100.00
76547;BME280;65390;53.014;8.886;2023-02-07T08:17:09;104153.97;;;-1.75;100.00
76547;BME280;65390;53.014;8.886;2023-02-07T08:19:35;104175.78;;;-1.78;100.00
76547;BME280;65390;53.014;8.886;2023-02-07T08:22:02;104181.06;;;-1.78;100.00
76547;BME280;65390;53.014;8.886;2023-02-07T08:24:27;104157.56;;;-1.96;100.00
76547;BME280;65390;53.014;8.886;2023-02-07T08:26:53;104184.56;;;-1.77;100.00
76547;BME280;65390;53.014;8.886;2023-02-07T08:29:18;104175.78;;;-1.78;100.00
76547;BME280;65390;53.014;8.886;2023-02-07T08:31:43;104154.09;;;-1.95;100.00
76547;BME280;65390;53.014;8.886;2023-02-07T08:34:09;104171.72;;;-1.92;100.00
76547;BME280;65390;53.014;8.886;2023-02-07T08:36:36;104172.19;;;-1.80;100.00
76547;BME280;65390;53.014;8.886;2023-02-07T08:39:02;104167.94;;;-1.54;100.00
76547;BME280;65390;53.014;8.886;2023-02-07T08:41:28;104171.34;;;-1.57;100.00
76547;BME280;65390;53.014;8.886;2023-02-07T08:43:53;104148.16;;;-0.95;100.00
76547;BME280;65390;53.014;8.886;2023-02-07T08:46:18;104157.13;;;0.16;100.00
76547;BME280;65390;53.014;8.886;2023-02-07T08:48:44;104152.00;;;1.45;100.00
76547;BME280;65390;53.014;8.886;2023-02-07T08:51:09;104148.44;;;2.17;100.00
76547;BME280;65390;53.014;8.886;2023-02-07T08:53:35;104155.75;;;2.69;99.34
76547;BME280;65390;53.014;8.886;2023-02-07T08:56:01;104154.13;;;2.76;96.07
76547;BME280;65390;53.014;8.886;2023-02-07T08:58:26;104151.75;;;3.40;93.67
76547;BME280;65390;53.014;8.886;2023-02-07T09:00:52;104165.75;;;3.81;91.19
76547;BME280;65390;53.014;8.886;2023-02-07T09:03:17;104121.81;;;4.00;89.12
76547;BME280;65390;53.014;8.886;2023-02-07T09:05:44;104148.31;;;3.97;87.16
76547;BME280;65390;53.014;8.886;2023-02-07T09:08:09;104155.94;;;4.36;86.26
76547;BME280;65390;53.014;8.886;2023-02-07T09:10:34;104134.91;;;3.90;84.47
76547;BME280;65390;53.014;8.886;2023-02-07T09:13:00;104153.06;;;3.63;84.21
76547;BME280;65390;53.014;8.886;2023-02-07T09:15:25;104146.13;;;3.73;85.11
76547;BME280;65390;53.014;8.886;2023-02-07T09:17:51;104137.88;;;3.54;85.62
76547;BME280;65390;53.014;8.886;2023-02-07T09:20:17;104149.22;;;2.97;84.35
76547;BME280;65390;53.014;8.886;2023-02-07T09:22:42;104145.66;;;2.11;85.75
76547;BME280;65390;53.014;8.886;2023-02-07T09:25:26;104143.41;;;2.70;88.03
76547;BME280;65390;53.014;8.886;2023-02-07T09:27:52;104162.22;;;3.30;88.03
76547;BME280;65390;53.014;8.886;2023-02-07T09:30:17;104160.00;;;3.55;87.23
76547;BME280;65390;53.014;8.886;2023-02-07T09:32:43;104140.50;;;3.03;86.18
76547;BME280;65390;53.014;8.886;2023-02-07T09:35:08;104167.50;;;2.84;86.71
76547;BME280;65390;53.014;8.886;2023-02-07T09:37:35;104149.94;;;2.87;87.17
76547;BME280;65390;53.014;8.886;2023-02-07T09:40:00;104130.63;;;2.51;87.09
76547;BME280;65390;53.014;8.886;2023-02-07T09:42:49;104145.06;;;1.85;89.17
76547;BME280;65390;53.014;8.886;2023-02-07T09:45:17;104140.81;;;1.56;89.76
76547;BME280;65390;53.014;8.886;2023-02-07T09:47:44;104172.47;;;1.54;90.81
76547;BME280;65390;53.014;8.886;2023-02-07T09:50:24;104133.22;;;1.35;92.24
76547;BME280;65390;53.014;8.886;2023-02-07T09:53:05;104140.03;;;1.61;92.46
76547;BME280;65390;53.014;8.886;2023-02-07T09:55:48;104175.06;;;1.87;93.29
76547;BME280;65390;53.014;8.886;2023-02-07T09:58:22;104132.84;;;1.54;93.24
76547;BME280;65390;53.014;8.886;2023-02-07T10:01:01;104151.69;;;1.68;93.51
76547;BME280;65390;53.014;8.886;2023-02-07T10:03:28;104133.59;;;1.85;94.16
76547;BME280;65390;53.014;8.886;2023-02-07T10:06:01;104139.13;;;1.97;93.84
76547;BME280;65390;53.014;8.886;2023-02-07T10:08:28;104132.25;;;2.03;94.62
76547;BME280;65390;53.014;8.886;2023-02-07T10:11:15;104176.34;;;2.03;93.99
76547;BME280;65390;53.014;8.886;2023-02-07T10:16:41;104168.78;;;2.20;93.52
76547;BME280;65390;53.014;8.886;2023-02-07T10:27:33;104112.78;;;2.00;93.09
76547;BME280;65390;53.014;8.886;2023-02-07T10:30:03;104163.78;;;2.33;92.47
76547;BME280;65390;53.014;8.886;2023-02-07T10:32:36;104132.78;;;2.28;92.82
76547;BME280;65390;53.014;8.886;2023-02-07T10:35:23;104144.91;;;2.17;92.81
76547;BME280;65390;53.014;8.886;2023-02-07T10:37:55;104138.00;;;2.23;92.34
76547;BME280;65390;53.014;8.886;2023-02-07T10:40:38;104142.47;;;2.26;92.62
76547;BME280;65390;53.014;8.886;2023-02-07T10:43:27;104145.56;;;2.47;92.37
76547;BME280;65390;53.014;8.886;2023-02-07T10:45:58;104122.28;;;2.31;91.91
76547;BME280;65390;53.014;8.886;2023-02-07T10:48:25;104138.34;;;2.38;91.67
76547;BME280;65390;53.014;8.886;2023-02-07T10:50:52;104143.72;;;2.43;91.93
76547;BME280;65390;53.014;8.886;2023-02-07T10:56:26;104128.91;;;2.12;91.90
76547;BME280;65390;53.014;8.886;2023-02-07T10:58:52;104130.94;;;2.24;92.49
76547;BME280;65390;53.014;8.886;2023-02-07T11:01:24;104123.66;;;2.13;92.42
76547;BME280;65390;53.014;8.886;2023-02-07T11:03:51;104095.72;;;2.26;93.23
76547;BME280;65390;53.014;8.886;2023-02-07T11:06:28;104115.00;;;2.63;92.07
76547;BME280;65390;53.014;8.886;2023-02-07T11:09:22;104148.34;;;2.97;91.62
76547;BME280;65390;53.014;8.886;2023-02-07T11:11:50;104091.97;;;2.59;91.81
76547;BME280;65390;53.014;8.886;2023-02-07T11:14:18;104143.16;;;3.03;91.65
76547;BME280;65390;53.014;8.886;2023-02-07T11:16:56;104106.97;;;3.05;91.16
76547;BME280;65390;53.014;8.886;2023-02-07T11:19:27;104107.06;;;3.08;90.75
76547;BME280;65390;53.014;8.886;2023-02-07T11:22:08;104145.25;;;3.21;90.84
76547;BME280;65390;53.014;8.886;2023-02-07T11:24:35;104117.00;;;3.23;90.78
76547;BME280;65390;53.014;8.886;2023-02-07T11:27:12;104128.56;;;3.25;90.43
76547;BME280;65390;53.014;8.886;2023-02-07T11:29:51;104105.50;;;3.22;90.82
76547;BME280;65390;53.014;8.886;2023-02-07T11:32:18;104099.56;;;3.36;89.38
76547;BME280;65390;53.014;8.886;2023-02-07T11:39:42;104094.47;;;3.48;89.87
76547;BME280;65390;53.014;8.886;2023-02-07T11:42:11;104088.06;;;3.33;88.63
76547;BME280;65390;53.014;8.886;2023-02-07T11:44:41;104082.69;;;3.29;88.54
76547;BME280;65390;53.014;8.886;2023-02-07T11:47:13;104076.56;;;3.34;88.25
76547;BME280;65390;53.014;8.886;2023-02-07T11:49:42;104073.22;;;3.45;88.40
76547;BME280;65390;53.014;8.886;2023-02-07T11:52:09;104083.94;;;3.52;87.51
76547;BME280;65390;53.014;8.886;2023-02-07T11:54:35;104067.13;;;3.52;88.15
76547;BME280;65390;53.014;8.886;2023-02-07T11:57:05;104077.13;;;3.70;87.21
76547;BME280;65390;53.014;8.886;2023-02-07T11:59:32;104055.69;;;3.54;86.81
76547;BME280;65390;53.014;8.886;2023-02-07T12:02:00;104063.63;;;3.54;86.59
76547;BME280;65390;53.014;8.886;2023-02-07T12:04:36;104070.63;;;3.49;86.13
76547;BME280;65390;53.014;8.886;2023-02-07T12:07:07;104056.53;;;3.52;86.75
76547;BME280;65390;53.014;8.886;2023-02-07T12:12:14;104044.19;;;3.54;85.71
76547;BME280;65390;53.014;8.886;2023-02-07T12:14:59;104049.53;;;3.57;84.91
76547;BME280;65390;53.014;8.886;2023-02-07T12:20:54;104040.47;;;3.41;84.36
76547;BME280;65390;53.014;8.886;2023-02-07T12:23:44;104035.34;;;3.53;83.43
76547;BME280;65390;53.014;8.886;2023-02-07T12:35:02;104049.75;;;3.72;81.65
76547;BME280;65390;53.014;8.886;2023-02-07T12:42:48;104062.38;;;3.88;81.36
76547;BME280;65390;53.014;8.886;2023-02-07T12:53:59;104062.81;;;4.20;81.30
76547;BME280;65390;53.014;8.886;2023-02-07T12:57:03;104062.84;;;4.22;81.68
76547;BME280;65390;53.014;8.886;2023-02-07T13:16:18;104049.53;;;4.19;77.76
76547;BME280;65390;53.014;8.886;2023-02-07T13:18:59;104045.09;;;4.19;77.28
76547;BME280;65390;53.014;8.886;2023-02-07T13:24:32;104042.31;;;4.09;77.29
76547;BME280;65390;53.014;8.886;2023-02-07T13:27:10;103998.69;;;3.88;76.63
76547;BME280;65390;53.014;8.886;2023-02-07T13:29:52;104018.41;;;4.09;76.07
76547;BME280;65390;53.014;8.886;2023-02-07T13:32:43;104001.59;;;4.07;75.43
76547;BME280;65390;53.014;8.886;2023-02-07T13:35:14;104024.66;;;4.12;75.53
76547;BME280;65390;53.014;8.886;2023-02-07T13:38:11;104037.91;;;4.12;75.41
76547;BME280;65390;53.014;8.886;2023-02-07T13:43:59;104037.22;;;4.25;75.32
76547;BME280;65390;53.014;8.886;2023-02-07T13:55:40;104031.34;;;4.54;75.65
76547;BME280;65390;53.014;8.886;2023-02-07T14:04:11;104024.25;;;4.53;76.29
76547;BME280;65390;53.014;8.886;2023-02-07T14:09:14;104024.97;;;4.38;77.06
76547;BME280;65390;53.014;8.886;2023-02-07T14:11:43;104009.69;;;4.17;76.88
76547;BME280;65390;53.014;8.886;2023-02-07T14:16:59;104033.66;;;4.25;76.21
76547;BME280;65390;53.014;8.886;2023-02-07T14:27:37;104018.56;;;4.19;77.17
76547;BME280;65390;53.014;8.886;2023-02-07T14:37:53;104035.78;;;4.55;77.24
76547;BME280;65390;53.014;8.886;2023-02-07T14:40:27;104031.72;;;4.10;77.45
76547;BME280;65390;53.014;8.886;2023-02-07T14:43:06;104020.13;;;4.04;77.22
76547;BME280;65390;53.014;8.886;2023-02-07T14:45:58;104015.69;;;4.03;78.03
76547;BME280;65390;53.014;8.886;2023-02-07T14:48:46;104051.38;;;4.26;77.23
76547;BME280;65390;53.014;8.886;2023-02-07T14:51:18;104030.81;;;4.10;77.68
76547;BME280;65390;53.014;8.886;2023-02-07T14:57:07;104014.91;;;4.11;77.97
76547;BME280;65390;53.014;8.886;2023-02-07T14:59:43;104007.09;;;4.22;77.88
76547;BME280;65390;53.014;8.886;2023-02-07T15:04:52;104013.09;;;4.07;77.68
76547;BME280;65390;53.014;8.886;2023-02-07T15:07:17;104019.38;;;4.14;77.89
76547;BME280;65390;53.014;8.886;2023-02-07T15:09:43;104026.56;;;4.22;77.86
76547;BME280;65390;53.014;8.886;2023-02-07T15:12:09;104017.75;;;4.25;77.89
76547;BME280;65390;53.014;8.886;2023-02-07T15:14:39;104020.34;;;4.22;77.23
76547;BME280;65390;53.014;8.886;2023-02-07T15:17:04;103994.44;;;4.00;77.25
76547;BME280;65390;53.014;8.886;2023-02-07T15:19:33;104047.75;;;4.19;77.60
76547;BME280;65390;53.014;8.886;2023-02-07T15:22:00;104023.56;;;3.95;77.49
76547;BME280;65390;53.014;8.886;2023-02-07T15:24:36;104060.16;;;4.20;78.27
76547;BME280;65390;53.014;8.886;2023-02-07T15:27:04;104013.91;;;4.02;77.85
76547;BME280;65390;53.014;8.886;2023-02-07T15:29:34;104032.69;;;4.15;77.79
76547;BME280;65390;53.014;8.886;2023-02-07T15:32:21;104029.97;;;4.12;78.26
76547;BME280;65390;53.014;8.886;2023-02-07T15:34:47;104032.69;;;4.17;78.14